sensor_id;sensor_type;location;lat;lon;timestamp;temperature;humidity
71177;DHT22;58877;51.992;4.504;2023-11-19T00:02:23;14.74;86.83
71177;DHT22;58877;51.992;4.504;2023-11-19T00:04:49;14.75;86.93
71177;DHT22;58877;51.992;4.504;2023-11-19T00:07:15;14.82;86.67
71177;DHT22;58877;51.992;4.504;2023-11-19T00:09:41;14.71;86.82
71177;DHT22;58877;51.992;4.504;2023-11-19T00:12:09;14.78;86.75
71177;DHT22;58877;51.992;4.504;2023-11-19T00:14:38;14.69;87.02
71177;DHT22;58877;51.992;4.504;2023-11-19T00:17:04;14.71;86.95
71177;DHT22;58877;51.992;4.504;2023-11-19T00:19:29;14.67;86.99
71177;DHT22;58877;51.992;4.504;2023-11-19T00:21:55;14.61;87.10
71177;DHT22;58877;51.992;4.504;2023-11-19T00:24:20;14.60;86.92
71177;DHT22;58877;51.992;4.504;2023-11-19T00:26:46;14.57;86.83
71177;DHT22;58877;51.992;4.504;2023-11-19T00:29:12;14.65;86.81
71177;DHT22;58877;51.992;4.504;2023-11-19T00:31:39;14.64;86.62
71177;DHT22;58877;51.992;4.504;2023-11-19T00:34:04;14.63;86.49
71177;DHT22;58877;51.992;4.504;2023-11-19T00:36:31;14.52;86.68
71177;DHT22;58877;51.992;4.504;2023-11-19T00:38:57;14.55;86.74
71177;DHT22;58877;51.992;4.504;2023-11-19T00:41:23;14.48;86.89
71177;DHT22;58877;51.992;4.504;2023-11-19T00:43:48;14.42;87.22
71177;DHT22;58877;51.992;4.504;2023-11-19T00:46:14;14.46;86.98
71177;DHT22;58877;51.992;4.504;2023-11-19T00:48:40;14.49;86.65
71177;DHT22;58877;51.992;4.504;2023-11-19T00:51:06;14.49;86.77
71177;DHT22;58877;51.992;4.504;2023-11-19T00:53:31;14.44;86.75
71177;DHT22;58877;51.992;4.504;2023-11-19T00:55:57;14.42;86.99
71177;DHT22;58877;51.992;4.504;2023-11-19T00:58:23;14.42;86.35
71177;DHT22;58877;51.992;4.504;2023-11-19T01:01:04;14.40;86.49
71177;DHT22;58877;51.992;4.504;2023-11-19T01:03:30;14.34;86.40
71177;DHT22;58877;51.992;4.504;2023-11-19T01:05:56;14.38;86.14
71177;DHT22;58877;51.992;4.504;2023-11-19T01:08:21;14.37;86.13
71177;DHT22;58877;51.992;4.504;2023-11-19T01:10:47;14.35;85.96
71177;DHT22;58877;51.992;4.504;2023-11-19T01:13:22;14.37;85.89
71177;DHT22;58877;51.992;4.504;2023-11-19T01:16:13;14.35;85.67
71177;DHT22;58877;51.992;4.504;2023-11-19T01:19:18;14.27;85.79
71177;DHT22;58877;51.992;4.504;2023-11-19T01:21:53;14.28;85.44
71177;DHT22;58877;51.992;4.504;2023-11-19T01:27:31;14.18;85.25
71177;DHT22;58877;51.992;4.504;2023-11-19T01:30:20;14.17;85.16
71177;DHT22;58877;51.992;4.504;2023-11-19T01:36:27;14.16;84.74
71177;DHT22;58877;51.992;4.504;2023-11-19T01:39:08;14.07;84.93
71177;DHT22;58877;51.992;4.504;2023-11-19T01:42:04;14.01;84.60
71177;DHT22;58877;51.992;4.504;2023-11-19T01:44:41;14.10;84.41
71177;DHT22;58877;51.992;4.504;2023-11-19T01:47:15;14.06;84.07
71177;DHT22;58877;51.992;4.504;2023-11-19T01:50:23;14.06;84.01
71177;DHT22;58877;51.992;4.504;2023-11-19T01:56:28;13.99;83.93
71177;DHT22;58877;51.992;4.504;2023-11-19T02:08:34;13.89;83.99
71177;DHT22;58877;51.992;4.504;2023-11-19T02:11:20;13.81;84.26
71177;DHT22;58877;51.992;4.504;2023-11-19T02:13:59;13.84;84.07
71177;DHT22;58877;51.992;4.504;2023-11-19T02:23:52;13.76;84.39
71177;DHT22;58877;51.992;4.504;2023-11-19T02:30:08;13.63;84.39
71177;DHT22;58877;51.992;4.504;2023-11-19T02:32:47;13.59;84.74
71177;DHT22;58877;51.992;4.504;2023-11-19T02:35:22;13.63;84.42
71177;DHT22;58877;51.992;4.504;2023-11-19T02:38:13;13.65;84.18
71177;DHT22;58877;51.992;4.504;2023-11-19T02:44:31;13.56;83.94
71177;DHT22;58877;51.992;4.504;2023-11-19T02:47:28;13.55;83.98
71177;DHT22;58877;51.992;4.504;2023-11-19T02:53:12;13.50;84.07
71177;DHT22;58877;51.992;4.504;2023-11-19T02:59:01;13.39;84.33
71177;DHT22;58877;51.992;4.504;2023-11-19T03:01:47;13.39;84.21
71177;DHT22;58877;51.992;4.504;2023-11-19T03:04:15;13.36;84.07
71177;DHT22;58877;51.992;4.504;2023-11-19T03:06:46;13.42;84.08
71177;DHT22;58877;51.992;4.504;2023-11-19T03:09:12;13.34;83.90
71177;DHT22;58877;51.992;4.504;2023-11-19T03:11:38;13.34;83.70
71177;DHT22;58877;51.992;4.504;2023-11-19T03:14:04;13.35;83.55
71177;DHT22;58877;51.992;4.504;2023-11-19T03:16:30;13.32;83.69
71177;DHT22;58877;51.992;4.504;2023-11-19T03:18:55;13.30;83.43
71177;DHT22;58877;51.992;4.504;2023-11-19T03:21:30;13.36;83.34
71177;DHT22;58877;51.992;4.504;2023-11-19T03:23:58;13.42;83.00
71177;DHT22;58877;51.992;4.504;2023-11-19T03:26:27;13.35;83.19
71177;DHT22;58877;51.992;4.504;2023-11-19T03:28:59;13.36;83.05
71177;DHT22;58877;51.992;4.504;2023-11-19T03:31:24;13.30;83.25
71177;DHT22;58877;51.992;4.504;2023-11-19T03:33:51;13.36;83.00
71177;DHT22;58877;51.992;4.504;2023-11-19T03:36:19;13.30;83.29
71177;DHT22;58877;51.992;4.504;2023-11-19T03:38:45;13.23;83.69
71177;DHT22;58877;51.992;4.504;2023-11-19T03:41:12;13.25;83.65
71177;DHT22;58877;51.992;4.504;2023-11-19T03:43:38;13.25;83.92
71177;DHT22;58877;51.992;4.504;2023-11-19T03:46:05;13.23;83.84
71177;DHT22;58877;51.992;4.504;2023-11-19T03:48:31;13.19;83.81
71177;DHT22;58877;51.992;4.504;2023-11-19T03:50:56;13.23;83.66
71177;DHT22;58877;51.992;4.504;2023-11-19T03:53:22;13.16;83.83
71177;DHT22;58877;51.992;4.504;2023-11-19T03:55:49;13.15;83.65
71177;DHT22;58877;51.992;4.504;2023-11-19T03:58:15;13.20;83.50
71177;DHT22;58877;51.992;4.504;2023-11-19T04:00:40;13.18;83.36
71177;DHT22;58877;51.992;4.504;2023-11-19T04:03:06;13.12;83.42
71177;DHT22;58877;51.992;4.504;2023-11-19T04:05:32;13.16;82.89
71177;DHT22;58877;51.992;4.504;2023-11-19T04:07:57;13.16;82.68
71177;DHT22;58877;51.992;4.504;2023-11-19T04:10:23;13.08;82.62
71177;DHT22;58877;51.992;4.504;2023-11-19T04:12:49;13.14;82.36
71177;DHT22;58877;51.992;4.504;2023-11-19T04:15:14;13.15;82.11
71177;DHT22;58877;51.992;4.504;2023-11-19T04:17:40;13.15;81.69
71177;DHT22;58877;51.992;4.504;2023-11-19T04:20:06;13.18;81.45
71177;DHT22;58877;51.992;4.504;2023-11-19T04:22:36;13.20;81.32
71177;DHT22;58877;51.992;4.504;2023-11-19T04:25:01;13.15;80.97
71177;DHT22;58877;51.992;4.504;2023-11-19T04:27:27;13.14;81.24
71177;DHT22;58877;51.992;4.504;2023-11-19T04:29:53;13.06;81.44
71177;DHT22;58877;51.992;4.504;2023-11-19T04:32:18;13.11;81.20
71177;DHT22;58877;51.992;4.504;2023-11-19T04:34:44;13.15;80.91
71177;DHT22;58877;51.992;4.504;2023-11-19T04:37:10;13.16;80.57
71177;DHT22;58877;51.992;4.504;2023-11-19T04:39:35;13.15;80.48
71177;DHT22;58877;51.992;4.504;2023-11-19T04:42:02;13.14;80.65
71177;DHT22;58877;51.992;4.504;2023-11-19T04:44:29;13.15;80.44
71177;DHT22;58877;51.992;4.504;2023-11-19T04:46:55;13.19;80.49
71177;DHT22;58877;51.992;4.504;2023-11-19T04:49:21;13.15;80.40
71177;DHT22;58877;51.992;4.504;2023-11-19T04:51:47;13.14;80.49
71177;DHT22;58877;51.992;4.504;2023-11-19T04:54:12;13.25;80.17
71177;DHT22;58877;51.992;4.504;2023-11-19T04:56:39;13.19;80.27
71177;DHT22;58877;51.992;4.504;2023-11-19T04:59:06;13.11;80.74
71177;DHT22;58877;51.992;4.504;2023-11-19T05:01:32;13.09;80.96
71177;DHT22;58877;51.992;4.504;2023-11-19T05:03:58;13.09;80.93
71177;DHT22;58877;51.992;4.504;2023-11-19T05:06:31;13.08;81.09
71177;DHT22;58877;51.992;4.504;2023-11-19T05:08:59;13.11;81.16
71177;DHT22;58877;51.992;4.504;2023-11-19T05:11:33;13.14;81.03
71177;DHT22;58877;51.992;4.504;2023-11-19T05:14:00;13.16;80.91
71177;DHT22;58877;51.992;4.504;2023-11-19T05:16:26;13.08;81.35
71177;DHT22;58877;51.992;4.504;2023-11-19T05:18:52;13.09;81.21
71177;DHT22;58877;51.992;4.504;2023-11-19T05:21:18;13.08;81.32
71177;DHT22;58877;51.992;4.504;2023-11-19T05:23:43;13.09;81.35
71177;DHT22;58877;51.992;4.504;2023-11-19T05:26:17;13.06;81.44
71177;DHT22;58877;51.992;4.504;2023-11-19T05:28:43;12.99;81.67
71177;DHT22;58877;51.992;4.504;2023-11-19T05:31:08;13.01;81.59
71177;DHT22;58877;51.992;4.504;2023-11-19T05:33:34;13.01;81.80
71177;DHT22;58877;51.992;4.504;2023-11-19T05:36:00;12.99;81.70
71177;DHT22;58877;51.992;4.504;2023-11-19T05:38:29;13.02;81.56
71177;DHT22;58877;51.992;4.504;2023-11-19T05:40:54;12.95;81.62
71177;DHT22;58877;51.992;4.504;2023-11-19T05:43:23;12.99;81.49
71177;DHT22;58877;51.992;4.504;2023-11-19T05:45:48;13.06;81.15
71177;DHT22;58877;51.992;4.504;2023-11-19T05:48:14;12.95;81.33
71177;DHT22;58877;51.992;4.504;2023-11-19T05:50:39;12.94;81.35
71177;DHT22;58877;51.992;4.504;2023-11-19T05:53:05;12.85;81.20
71177;DHT22;58877;51.992;4.504;2023-11-19T05:55:35;12.99;80.86
71177;DHT22;58877;51.992;4.504;2023-11-19T05:58:01;12.99;80.77
71177;DHT22;58877;51.992;4.504;2023-11-19T06:00:28;12.98;80.73
71177;DHT22;58877;51.992;4.504;2023-11-19T06:03:02;12.98;80.33
71177;DHT22;58877;51.992;4.504;2023-11-19T06:05:29;12.92;80.52
71177;DHT22;58877;51.992;4.504;2023-11-19T06:07:55;12.96;80.42
71177;DHT22;58877;51.992;4.504;2023-11-19T06:10:21;12.92;80.57
71177;DHT22;58877;51.992;4.504;2023-11-19T06:12:47;12.92;80.36
71177;DHT22;58877;51.992;4.504;2023-11-19T06:15:21;13.05;80.00
71177;DHT22;58877;51.992;4.504;2023-11-19T06:17:50;12.96;79.98
71177;DHT22;58877;51.992;4.504;2023-11-19T06:20:22;12.96;79.79
71177;DHT22;58877;51.992;4.504;2023-11-19T06:22:47;12.96;79.82
71177;DHT22;58877;51.992;4.504;2023-11-19T06:25:13;12.84;80.13
71177;DHT22;58877;51.992;4.504;2023-11-19T06:27:43;12.95;80.08
71177;DHT22;58877;51.992;4.504;2023-11-19T06:30:17;12.98;80.03
71177;DHT22;58877;51.992;4.504;2023-11-19T06:32:43;12.91;80.52
71177;DHT22;58877;51.992;4.504;2023-11-19T06:35:09;12.92;80.39
71177;DHT22;58877;51.992;4.504;2023-11-19T06:37:40;12.91;80.49
71177;DHT22;58877;51.992;4.504;2023-11-19T06:40:07;12.92;80.40
71177;DHT22;58877;51.992;4.504;2023-11-19T06:42:35;12.94;80.42
71177;DHT22;58877;51.992;4.504;2023-11-19T06:45:01;12.87;80.58
71177;DHT22;58877;51.992;4.504;2023-11-19T06:47:27;12.95;80.25
71177;DHT22;58877;51.992;4.504;2023-11-19T06:49:53;12.91;80.33
71177;DHT22;58877;51.992;4.504;2023-11-19T06:52:19;12.91;80.22
71177;DHT22;58877;51.992;4.504;2023-11-19T06:54:45;12.84;80.78
71177;DHT22;58877;51.992;4.504;2023-11-19T06:57:16;12.88;80.80
71177;DHT22;58877;51.992;4.504;2023-11-19T06:59:42;12.96;80.81
71177;DHT22;58877;51.992;4.504;2023-11-19T07:02:07;12.89;81.02
71177;DHT22;58877;51.992;4.504;2023-11-19T07:04:34;13.02;80.96
71177;DHT22;58877;51.992;4.504;2023-11-19T07:06:59;13.05;81.09
71177;DHT22;58877;51.992;4.504;2023-11-19T07:09:26;13.09;80.96
71177;DHT22;58877;51.992;4.504;2023-11-19T07:11:52;13.14;80.91
71177;DHT22;58877;51.992;4.504;2023-11-19T07:14:18;13.12;81.10
71177;DHT22;58877;51.992;4.504;2023-11-19T07:16:44;13.18;81.05
71177;DHT22;58877;51.992;4.504;2023-11-19T07:19:12;13.16;80.96
71177;DHT22;58877;51.992;4.504;2023-11-19T07:21:41;13.18;80.86
71177;DHT22;58877;51.992;4.504;2023-11-19T07:24:10;13.16;80.91
71177;DHT22;58877;51.992;4.504;2023-11-19T07:26:46;13.18;80.60
71177;DHT22;58877;51.992;4.504;2023-11-19T07:29:15;13.18;80.54
71177;DHT22;58877;51.992;4.504;2023-11-19T07:31:42;13.30;80.18
71177;DHT22;58877;51.992;4.504;2023-11-19T07:34:10;13.28;80.07
71177;DHT22;58877;51.992;4.504;2023-11-19T07:36:37;13.29;80.15
71177;DHT22;58877;51.992;4.504;2023-11-19T07:39:03;13.23;80.32
71177;DHT22;58877;51.992;4.504;2023-11-19T07:41:33;13.22;80.26
71177;DHT22;58877;51.992;4.504;2023-11-19T07:43:59;13.26;80.20
71177;DHT22;58877;51.992;4.504;2023-11-19T07:46:24;13.32;80.15
71177;DHT22;58877;51.992;4.504;2023-11-19T07:48:51;13.30;80.01
71177;DHT22;58877;51.992;4.504;2023-11-19T07:51:17;13.16;80.18
71177;DHT22;58877;51.992;4.504;2023-11-19T07:53:43;13.20;79.84
71177;DHT22;58877;51.992;4.504;2023-11-19T07:56:10;13.22;79.86
71177;DHT22;58877;51.992;4.504;2023-11-19T07:58:38;13.26;79.49
71177;DHT22;58877;51.992;4.504;2023-11-19T08:01:05;13.26;79.05
71177;DHT22;58877;51.992;4.504;2023-11-19T08:03:30;13.36;78.94
71177;DHT22;58877;51.992;4.504;2023-11-19T08:05:56;13.43;78.66
71177;DHT22;58877;51.992;4.504;2023-11-19T08:08:23;13.46;78.74
71177;DHT22;58877;51.992;4.504;2023-11-19T08:10:51;13.49;78.63
71177;DHT22;58877;51.992;4.504;2023-11-19T08:13:18;13.43;78.97
71177;DHT22;58877;51.992;4.504;2023-11-19T08:15:45;13.43;78.98
71177;DHT22;58877;51.992;4.504;2023-11-19T08:18:11;13.40;78.90
71177;DHT22;58877;51.992;4.504;2023-11-19T08:20:37;13.40;78.97
71177;DHT22;58877;51.992;4.504;2023-11-19T08:23:03;13.40;78.84
71177;DHT22;58877;51.992;4.504;2023-11-19T08:25:31;13.42;78.70
71177;DHT22;58877;51.992;4.504;2023-11-19T08:27:59;13.53;78.76
71177;DHT22;58877;51.992;4.504;2023-11-19T08:30:25;13.59;78.54
71177;DHT22;58877;51.992;4.504;2023-11-19T08:32:53;13.66;78.56
71177;DHT22;58877;51.992;4.504;2023-11-19T08:35:19;13.74;77.90
71177;DHT22;58877;51.992;4.504;2023-11-19T08:37:45;13.77;77.79
71177;DHT22;58877;51.992;4.504;2023-11-19T08:40:12;13.76;77.49
71177;DHT22;58877;51.992;4.504;2023-11-19T08:42:40;13.90;77.50
71177;DHT22;58877;51.992;4.504;2023-11-19T08:45:07;13.96;77.42
71177;DHT22;58877;51.992;4.504;2023-11-19T08:47:39;13.96;76.93
71177;DHT22;58877;51.992;4.504;2023-11-19T08:50:06;13.90;77.40
71177;DHT22;58877;51.992;4.504;2023-11-19T08:52:33;13.90;77.41
71177;DHT22;58877;51.992;4.504;2023-11-19T08:54:59;14.00;77.53
71177;DHT22;58877;51.992;4.504;2023-11-19T08:57:25;14.01;77.39
71177;DHT22;58877;51.992;4.504;2023-11-19T08:59:50;14.03;77.23
71177;DHT22;58877;51.992;4.504;2023-11-19T09:02:16;14.03;77.49
71177;DHT22;58877;51.992;4.504;2023-11-19T09:04:44;14.10;76.99
71177;DHT22;58877;51.992;4.504;2023-11-19T09:07:09;14.06;77.18
71177;DHT22;58877;51.992;4.504;2023-11-19T09:09:35;14.14;77.14
71177;DHT22;58877;51.992;4.504;2023-11-19T09:12:02;14.11;76.67
71177;DHT22;58877;51.992;4.504;2023-11-19T09:14:29;14.09;76.60
71177;DHT22;58877;51.992;4.504;2023-11-19T09:16:56;14.04;76.50
71177;DHT22;58877;51.992;4.504;2023-11-19T09:19:25;14.11;76.61
71177;DHT22;58877;51.992;4.504;2023-11-19T09:21:52;14.23;76.29
71177;DHT22;58877;51.992;4.504;2023-11-19T09:24:18;14.38;75.95
71177;DHT22;58877;51.992;4.504;2023-11-19T09:26:43;14.41;75.61
71177;DHT22;58877;51.992;4.504;2023-11-19T09:29:10;14.44;75.61
71177;DHT22;58877;51.992;4.504;2023-11-19T09:31:38;14.52;75.26
71177;DHT22;58877;51.992;4.504;2023-11-19T09:34:04;14.55;74.58
71177;DHT22;58877;51.992;4.504;2023-11-19T09:36:34;14.46;74.92
71177;DHT22;58877;51.992;4.504;2023-11-19T09:39:00;14.20;74.68
71177;DHT22;58877;51.992;4.504;2023-11-19T09:41:27;14.31;74.72
71177;DHT22;58877;51.992;4.504;2023-11-19T09:43:53;14.37;74.50
71177;DHT22;58877;51.992;4.504;2023-11-19T09:46:19;14.46;74.02
71177;DHT22;58877;51.992;4.504;2023-11-19T09:48:46;14.42;73.35
71177;DHT22;58877;51.992;4.504;2023-11-19T09:51:13;14.48;73.63
71177;DHT22;58877;51.992;4.504;2023-11-19T09:53:40;14.48;73.33
71177;DHT22;58877;51.992;4.504;2023-11-19T09:56:06;14.52;73.10
71177;DHT22;58877;51.992;4.504;2023-11-19T09:58:33;14.58;73.36
71177;DHT22;58877;51.992;4.504;2023-11-19T10:01:00;14.42;73.20
71177;DHT22;58877;51.992;4.504;2023-11-19T10:03:33;14.60;73.30
71177;DHT22;58877;51.992;4.504;2023-11-19T10:06:05;14.52;73.20
71177;DHT22;58877;51.992;4.504;2023-11-19T10:08:32;14.38;73.27
71177;DHT22;58877;51.992;4.504;2023-11-19T10:10:58;14.33;73.47
71177;DHT22;58877;51.992;4.504;2023-11-19T10:13:30;14.37;73.49
71177;DHT22;58877;51.992;4.504;2023-11-19T10:15:56;14.48;73.22
71177;DHT22;58877;51.992;4.504;2023-11-19T10:18:28;14.48;72.81
71177;DHT22;58877;51.992;4.504;2023-11-19T10:20:53;14.48;72.63
71177;DHT22;58877;51.992;4.504;2023-11-19T10:23:20;14.61;72.31
71177;DHT22;58877;51.992;4.504;2023-11-19T10:25:46;14.75;72.42
71177;DHT22;58877;51.992;4.504;2023-11-19T10:28:15;14.71;72.28
71177;DHT22;58877;51.992;4.504;2023-11-19T10:30:42;14.78;72.18
71177;DHT22;58877;51.992;4.504;2023-11-19T10:33:12;14.69;72.21
71177;DHT22;58877;51.992;4.504;2023-11-19T10:35:53;14.75;72.05
71177;DHT22;58877;51.992;4.504;2023-11-19T10:38:20;14.69;72.43
71177;DHT22;58877;51.992;4.504;2023-11-19T10:40:48;14.79;72.19
71177;DHT22;58877;51.992;4.504;2023-11-19T10:43:15;14.65;72.13
71177;DHT22;58877;51.992;4.504;2023-11-19T10:45:40;14.72;71.64
71177;DHT22;58877;51.992;4.504;2023-11-19T10:48:07;14.65;71.93
71177;DHT22;58877;51.992;4.504;2023-11-19T10:50:34;14.60;71.84
71177;DHT22;58877;51.992;4.504;2023-11-19T10:53:02;14.67;72.75
71177;DHT22;58877;51.992;4.504;2023-11-19T10:55:31;14.74;73.08
71177;DHT22;58877;51.992;4.504;2023-11-19T11:00:29;14.76;74.61
71177;DHT22;58877;51.992;4.504;2023-11-19T11:03:00;14.95;74.37
71177;DHT22;58877;51.992;4.504;2023-11-19T11:05:26;15.05;74.97
71177;DHT22;58877;51.992;4.504;2023-11-19T11:07:55;15.08;74.78
71177;DHT22;58877;51.992;4.504;2023-11-19T11:10:25;15.10;75.08
71177;DHT22;58877;51.992;4.504;2023-11-19T11:12:52;15.16;74.99
71177;DHT22;58877;51.992;4.504;2023-11-19T11:15:27;15.06;75.30
71177;DHT22;58877;51.992;4.504;2023-11-19T11:21:09;15.33;74.50
71177;DHT22;58877;51.992;4.504;2023-11-19T11:36:29;14.98;75.75
71177;DHT22;58877;51.992;4.504;2023-11-19T11:39:17;15.09;75.93
71177;DHT22;58877;51.992;4.504;2023-11-19T11:45:48;15.15;74.27
71177;DHT22;58877;51.992;4.504;2023-11-19T11:50:29;15.33;73.43
71177;DHT22;58877;51.992;4.504;2023-11-19T11:53:19;15.36;72.64
71177;DHT22;58877;51.992;4.504;2023-11-19T11:55:54;15.19;71.91
71177;DHT22;58877;51.992;4.504;2023-11-19T11:58:43;15.36;71.63
71177;DHT22;58877;51.992;4.504;2023-11-19T12:01:37;15.39;70.26
71177;DHT22;58877;51.992;4.504;2023-11-19T12:04:18;15.35;69.96
71177;DHT22;58877;51.992;4.504;2023-11-19T12:10:18;15.36;70.68
71177;DHT22;58877;51.992;4.504;2023-11-19T12:13:09;15.15;71.23
71177;DHT22;58877;51.992;4.504;2023-11-19T12:18:50;15.02;71.80
71177;DHT22;58877;51.992;4.504;2023-11-19T12:21:32;15.00;71.94
71177;DHT22;58877;51.992;4.504;2023-11-19T12:24:02;15.09;72.08
71177;DHT22;58877;51.992;4.504;2023-11-19T12:27:01;15.13;72.18
71177;DHT22;58877;51.992;4.504;2023-11-19T12:29:44;15.22;72.05
71177;DHT22;58877;51.992;4.504;2023-11-19T12:32:16;15.08;71.78
71177;DHT22;58877;51.992;4.504;2023-11-19T12:35:11;14.92;72.92
71177;DHT22;58877;51.992;4.504;2023-11-19T12:38:00;15.05;72.69
71177;DHT22;58877;51.992;4.504;2023-11-19T12:40:32;14.99;72.69
71177;DHT22;58877;51.992;4.504;2023-11-19T12:43:07;14.89;72.91
71177;DHT22;58877;51.992;4.504;2023-11-19T12:45:44;14.89;73.46
71177;DHT22;58877;51.992;4.504;2023-11-19T12:48:24;14.93;73.11
71177;DHT22;58877;51.992;4.504;2023-11-19T12:50:58;14.75;73.32
71177;DHT22;58877;51.992;4.504;2023-11-19T12:53:48;14.84;73.29
71177;DHT22;58877;51.992;4.504;2023-11-19T12:56:24;15.00;72.77
71177;DHT22;58877;51.992;4.504;2023-11-19T12:59:13;14.81;72.64
71177;DHT22;58877;51.992;4.504;2023-11-19T13:01:59;14.89;72.86
71177;DHT22;58877;51.992;4.504;2023-11-19T13:04:30;15.00;73.04
71177;DHT22;58877;51.992;4.504;2023-11-19T13:07:02;14.86;73.47
71177;DHT22;58877;51.992;4.504;2023-11-19T13:10:00;14.92;74.21
71177;DHT22;58877;51.992;4.504;2023-11-19T13:12:30;14.82;74.99
71177;DHT22;58877;51.992;4.504;2023-11-19T13:14:59;14.67;75.28
71177;DHT22;58877;51.992;4.504;2023-11-19T13:17:32;14.75;76.04
71177;DHT22;58877;51.992;4.504;2023-11-19T13:20:07;14.71;76.39
71177;DHT22;58877;51.992;4.504;2023-11-19T13:25:47;14.71;76.42
71177;DHT22;58877;51.992;4.504;2023-11-19T13:28:15;14.74;76.70
71177;DHT22;58877;51.992;4.504;2023-11-19T13:30:44;14.61;76.54
71177;DHT22;58877;51.992;4.504;2023-11-19T13:33:10;14.63;76.93
71177;DHT22;58877;51.992;4.504;2023-11-19T13:35:56;14.57;76.40
71177;DHT22;58877;51.992;4.504;2023-11-19T13:38:28;14.49;76.10
71177;DHT22;58877;51.992;4.504;2023-11-19T13:41:03;14.48;75.69
71177;DHT22;58877;51.992;4.504;2023-11-19T13:44:13;14.46;75.10
71177;DHT22;58877;51.992;4.504;2023-11-19T13:46:51;14.40;75.23
71177;DHT22;58877;51.992;4.504;2023-11-19T13:49:19;14.34;74.75
71177;DHT22;58877;51.992;4.504;2023-11-19T13:51:47;14.40;74.39
71177;DHT22;58877;51.992;4.504;2023-11-19T13:54:13;14.46;74.32
71177;DHT22;58877;51.992;4.504;2023-11-19T13:56:40;14.52;74.29
71177;DHT22;58877;51.992;4.504;2023-11-19T13:59:09;14.51;74.27
71177;DHT22;58877;51.992;4.504;2023-11-19T14:01:44;14.31;74.67
71177;DHT22;58877;51.992;4.504;2023-11-19T14:04:37;14.34;74.81
71177;DHT22;58877;51.992;4.504;2023-11-19T14:10:25;14.40;74.75
71177;DHT22;58877;51.992;4.504;2023-11-19T14:12:51;14.41;75.14
71177;DHT22;58877;51.992;4.504;2023-11-19T14:15:17;14.46;75.21
71177;DHT22;58877;51.992;4.504;2023-11-19T14:17:54;14.42;75.29
71177;DHT22;58877;51.992;4.504;2023-11-19T14:20:23;14.54;75.22
71177;DHT22;58877;51.992;4.504;2023-11-19T14:22:52;14.42;75.32
71177;DHT22;58877;51.992;4.504;2023-11-19T14:25:31;14.28;75.34
71177;DHT22;58877;51.992;4.504;2023-11-19T14:28:02;14.42;75.02
71177;DHT22;58877;51.992;4.504;2023-11-19T14:30:38;14.52;74.88
71177;DHT22;58877;51.992;4.504;2023-11-19T14:33:07;14.45;74.17
71177;DHT22;58877;51.992;4.504;2023-11-19T14:35:34;14.42;74.20
71177;DHT22;58877;51.992;4.504;2023-11-19T14:38:24;14.46;73.70
71177;DHT22;58877;51.992;4.504;2023-11-19T14:41:07;14.42;73.50
71177;DHT22;58877;51.992;4.504;2023-11-19T14:43:34;14.55;73.64
71177;DHT22;58877;51.992;4.504;2023-11-19T14:46:23;14.54;73.33
71177;DHT22;58877;51.992;4.504;2023-11-19T14:49:00;14.46;73.54
71177;DHT22;58877;51.992;4.504;2023-11-19T14:51:35;14.40;73.73
71177;DHT22;58877;51.992;4.504;2023-11-19T14:54:08;14.44;74.35
71177;DHT22;58877;51.992;4.504;2023-11-19T14:56:58;14.57;74.41
71177;DHT22;58877;51.992;4.504;2023-11-19T15:06:51;14.46;76.07
71177;DHT22;58877;51.992;4.504;2023-11-19T15:09:33;14.34;76.54
71177;DHT22;58877;51.992;4.504;2023-11-19T15:12:15;14.16;77.20
71177;DHT22;58877;51.992;4.504;2023-11-19T15:14:42;14.18;77.43
71177;DHT22;58877;51.992;4.504;2023-11-19T15:17:13;14.07;77.89
71177;DHT22;58877;51.992;4.504;2023-11-19T15:19:46;14.01;77.90
71177;DHT22;58877;51.992;4.504;2023-11-19T15:22:19;14.10;77.75
71177;DHT22;58877;51.992;4.504;2023-11-19T15:24:58;14.04;77.95
71177;DHT22;58877;51.992;4.504;2023-11-19T15:27:31;14.04;77.69
71177;DHT22;58877;51.992;4.504;2023-11-19T15:29:57;14.07;77.73
71177;DHT22;58877;51.992;4.504;2023-11-19T15:32:27;14.07;77.33
71177;DHT22;58877;51.992;4.504;2023-11-19T15:35:01;14.06;77.47
71177;DHT22;58877;51.992;4.504;2023-11-19T15:37:45;14.00;77.47
71177;DHT22;58877;51.992;4.504;2023-11-19T15:40:21;14.01;77.65
71177;DHT22;58877;51.992;4.504;2023-11-19T15:42:59;13.91;78.17
71177;DHT22;58877;51.992;4.504;2023-11-19T15:45:36;13.87;78.68
71177;DHT22;58877;51.992;4.504;2023-11-19T15:48:04;13.86;79.01
71177;DHT22;58877;51.992;4.504;2023-11-19T15:50:45;13.79;79.95
71177;DHT22;58877;51.992;4.504;2023-11-19T15:53:23;13.74;80.28
71177;DHT22;58877;51.992;4.504;2023-11-19T15:55:51;13.70;80.48
71177;DHT22;58877;51.992;4.504;2023-11-19T15:58:19;13.71;80.57
71177;DHT22;58877;51.992;4.504;2023-11-19T16:00:53;13.66;80.78
71177;DHT22;58877;51.992;4.504;2023-11-19T16:03:19;13.66;80.96
71177;DHT22;58877;51.992;4.504;2023-11-19T16:05:48;13.58;81.46
71177;DHT22;58877;51.992;4.504;2023-11-19T16:08:21;13.66;81.35
71177;DHT22;58877;51.992;4.504;2023-11-19T16:10:58;13.74;81.45
71177;DHT22;58877;51.992;4.504;2023-11-19T16:13:32;13.73;81.37
71177;DHT22;58877;51.992;4.504;2023-11-19T16:16:05;13.55;82.05
71177;DHT22;58877;51.992;4.504;2023-11-19T16:18:30;13.50;82.84
71177;DHT22;58877;51.992;4.504;2023-11-19T16:20:57;13.48;82.92
71177;DHT22;58877;51.992;4.504;2023-11-19T16:23:26;13.45;83.32
71177;DHT22;58877;51.992;4.504;2023-11-19T16:25:53;13.42;83.66
71177;DHT22;58877;51.992;4.504;2023-11-19T16:28:25;13.38;84.08
71177;DHT22;58877;51.992;4.504;2023-11-19T16:30:59;13.39;84.24
71177;DHT22;58877;51.992;4.504;2023-11-19T16:33:28;13.30;84.60
71177;DHT22;58877;51.992;4.504;2023-11-19T16:35:57;13.26;84.98
71177;DHT22;58877;51.992;4.504;2023-11-19T16:38:23;13.29;84.90
71177;DHT22;58877;51.992;4.504;2023-11-19T16:40:56;13.38;84.87
71177;DHT22;58877;51.992;4.504;2023-11-19T16:43:26;13.26;85.28
71177;DHT22;58877;51.992;4.504;2023-11-19T16:45:54;13.22;85.28
71177;DHT22;58877;51.992;4.504;2023-11-19T16:48:20;13.16;85.56
71177;DHT22;58877;51.992;4.504;2023-11-19T16:50:46;13.28;85.57
71177;DHT22;58877;51.992;4.504;2023-11-19T16:53:14;13.20;85.79
71177;DHT22;58877;51.992;4.504;2023-11-19T16:55:39;13.25;85.79
71177;DHT22;58877;51.992;4.504;2023-11-19T16:58:05;13.22;86.02
71177;DHT22;58877;51.992;4.504;2023-11-19T17:00:31;13.20;86.46
71177;DHT22;58877;51.992;4.504;2023-11-19T17:02:57;13.22;86.29
71177;DHT22;58877;51.992;4.504;2023-11-19T17:05:33;13.20;86.50
71177;DHT22;58877;51.992;4.504;2023-11-19T17:08:27;13.26;86.22
71177;DHT22;58877;51.992;4.504;2023-11-19T17:10:59;13.19;86.24
71177;DHT22;58877;51.992;4.504;2023-11-19T17:13:30;13.19;86.11
71177;DHT22;58877;51.992;4.504;2023-11-19T17:16:01;13.18;86.55
71177;DHT22;58877;51.992;4.504;2023-11-19T17:18:31;13.20;86.18